Oriana — ZCDU9 — position and weather

sailwx.info

Track history (hours):
 
Tides and Currents Weather Stations Pressure Air Temp Water Temp Dewpoint Dewpoint Depression Visibility Wind Speed Wind Dir Waves Ship Positions

Oriana (Bermuda)

Last reported at 2017-Apr-24 11:00 UTC. Time now 2017-Apr-24 11:20 UTC.
Position N 46°41' W 007°08'.

Length 261 m; beam 32.2 m; draft 8.2 m.

Type: Ship. MMSI: 310529000.

Date/timePositionNaut miles runAvg speedWind from/ knotsBaromVisibWave heightAir tempDewpointWater temp
2017-Apr-24 11:00N 46°41' W 007°08'1020.1
2017-Apr-24 10:30N 46°50' W 007°00'1020.7
2017-Apr-24 10:01N 46°58' W 006°52'1020.8
2017-Apr-24 09:30N 47°07' W 006°44'1020.8
2017-Apr-24 09:00N 47°16' W 006°37'1020.8
2017-Apr-24 08:31N 47°26' W 006°30'1121.2
2017-Apr-24 08:01N 47°35' W 006°22'1121.6
2017-Apr-24 07:30N 47°43' W 006°12'1221.7
2017-Apr-24 06:57N 47°53' W 006°02'1222.1
2017-Apr-24 06:25N 48°03' W 005°52'921.8
2017-Apr-24 06:00N 48°11' W 005°45'1221.8
2017-Apr-24 05:27N 48°21' W 005°35'921.3
2017-Apr-24 05:00N 48°28' W 005°26'1019.9
2017-Apr-24 04:30N 48°36' W 005°16'1019.5
2017-Apr-24 04:00N 48°42' W 005°05'1019.6
2017-Apr-24 03:30N 48°50' W 004°56'1019.3
2017-Apr-24 03:00N 48°56' W 004°45'1719.1
2017-Apr-24 02:07N 49°07' W 004°26'861.9
2017-Apr-24 02:00N 49°00' W 004°30'1459.8 120 / 101025.310.8 11.511.512.0
2017-Apr-24 01:45N 49°12' W 004°17'1520.2
2017-Apr-24 01:00N 49°21' W 003°59'1120.0
2017-Apr-24 00:28N 49°28' W 003°47'1121.2
2017-Apr-23 23:57N 49°36' W 003°35'1021.7
2017-Apr-23 23:31N 49°43' W 003°25'1122.1
2017-Apr-23 23:01N 49°51' W 003°13'9544.8
2017-Apr-23 23:00N 49°54' W 003°00'5 9.8 210 / 71023.810.8 11.6 8.411.0
2017-Apr-23 22:31N 49°59' W 003°01'1121.9
2017-Apr-23 22:00N 50°02' W 002°45'1121.6
2017-Apr-23 21:30N 50°05' W 002°28'1021.0
2017-Apr-23 21:01N 50°08' W 002°13'1120.4
2017-Apr-23 20:29N 50°12' W 001°58'1019.7
2017-Apr-23 20:00N 50°17' W 001°45'1019.2
2017-Apr-23 19:30N 50°22' W 001°32'1018.6
2017-Apr-23 18:59N 50°27' W 001°19'817.5
2017-Apr-23 18:30N 50°31' W 001°07'917.2
2017-Apr-23 18:00N 50°37' W 000°59'611.1
2017-Apr-23 17:30N 50°43' W 000°60'917.1
2017-Apr-23 17:00N 50°46' W 001°13'510.6
2017-Apr-23 16:30N 50°50' W 001°18'510.2
2017-Apr-23 16:00N 50°53' W 001°24'2 2.7
2017-Apr-23 15:27N 50°54' W 001°26'0 0.0
2017-Apr-23 15:00N 50°54' W 001°26'0 0.0
2017-Apr-23 14:00N 50°54' W 001°26'0 0.0
2017-Apr-23 13:30N 50°54' W 001°26'0 0.0
2017-Apr-23 13:00N 50°54' W 001°26'0 0.0
2017-Apr-23 12:30N 50°54' W 001°26'0 0.0
2017-Apr-23 12:00N 50°54' W 001°26'0 0.0
2017-Apr-23 11:27N 50°54' W 001°26'0 0.0
2017-Apr-23 11:00N 50°54' W 001°26'0 0.0
2017-Apr-23 10:27N 50°54' W 001°26'0 0.0
2017-Apr-23 10:00N 50°54' W 001°26'0 0.0
2017-Apr-23 09:30N 50°54' W 001°26'0 0.0
2017-Apr-23 09:00N 50°54' W 001°26'0 0.0
2017-Apr-23 08:30N 50°54' W 001°26'0 0.0
2017-Apr-23 08:00N 50°54' W 001°26'0 0.0
2017-Apr-23 07:30N 50°54' W 001°26'0 0.0
2017-Apr-23 06:57N 50°54' W 001°26'0 0.0
2017-Apr-23 06:30N 50°54' W 001°26'0 0.0
2017-Apr-23 06:00N 50°54' W 001°26'0 0.6
2017-Apr-23 05:30N 50°54' W 001°26'2 3.6
2017-Apr-23 05:00N 50°53' W 001°24'4 8.9
2017-Apr-23 04:30N 50°50' W 001°19'4 8.0
2017-Apr-23 04:00N 50°46' W 001°17'815.8
2017-Apr-23 03:30N 50°44' W 001°05'612.7
2017-Apr-23 03:00N 50°39' W 000°58'510.9
2017-Apr-23 02:30N 50°34' W 000°60'713.2
2017-Apr-23 02:00N 50°31' W 001°09'714.5
2017-Apr-23 01:30N 50°28' W 001°20'1215.4
2017-Apr-23 00:42N 50°24' W 001°38'416.2
2017-Apr-23 00:29N 50°22' W 001°43'1312.6
2017-Apr-22 23:28N 50°17' W 002°01'510.2
2017-Apr-22 23:00N 50°15' W 002°08'510.1
2017-Apr-22 22:30N 50°11' W 002°14'611.7
2017-Apr-22 22:00N 50°06' W 002°14'1110.4
2017-Apr-22 20:57N 49°56' W 002°22'511.5
2017-Apr-22 20:30N 49°53' W 002°29'611.8
2017-Apr-22 19:59N 49°51' W 002°37'611.9
2017-Apr-22 19:31N 49°50' W 002°46'611.7
2017-Apr-22 19:01N 49°48' W 002°54'611.5
2017-Apr-22 18:30N 49°45' W 003°02'611.6
2017-Apr-22 18:00N 49°42' W 003°10'611.7
2017-Apr-22 17:30N 49°38' W 003°17'611.7
2017-Apr-22 17:00N 49°34' W 003°24'6355.6
2017-Apr-22 17:00N 49°30' W 003°18'918.4 360 / 51028.510.8 12.010.912.0
2017-Apr-22 16:30N 49°31' W 003°32'1811.7
2017-Apr-22 15:00N 49°20' W 003°53'19 9.5
2017-Apr-22 13:00N 49°06' W 004°12'2315.0 040 / 121032.910.8 12.010.112.0
2017-Apr-22 11:25N 48°55' W 004°44'811.3
2017-Apr-22 10:44N 48°50' W 004°53'311.2
2017-Apr-22 10:25N 48°48' W 004°57'510.9
2017-Apr-22 09:58N 48°45' W 005°03'612.6
2017-Apr-22 09:30N 48°41' W 005°09'917.3
2017-Apr-22 09:00N 48°35' W 005°19'917.8
2017-Apr-22 08:30N 48°28' W 005°28'917.3
2017-Apr-22 07:58N 48°19' W 005°29'1417.8
2017-Apr-22 07:09N 48°05' W 005°28'318.0
2017-Apr-22 07:00N 48°02' W 005°28'1317.3
2017-Apr-22 06:14N 47°50' W 005°19'938.5
2017-Apr-22 06:00N 47°42' W 005°12'52146.1 040 / 191029.110.8 11.4 7.512.0
2017-Apr-22 05:59N 47°47' W 005°13'918.3
2017-Apr-22 05:30N 47°42' W 005°03'1018.8
2017-Apr-22 05:00N 47°36' W 004°51'918.1
2017-Apr-22 04:30N 47°31' W 004°41'1019.0
2017-Apr-22 04:00N 47°25' W 004°30'918.2
2017-Apr-22 03:30N 47°19' W 004°19'918.6
2017-Apr-22 03:00N 47°14' W 004°08'918.7
2017-Apr-22 02:30N 47°08' W 003°57'918.8
2017-Apr-22 02:00N 47°02' W 003°47'11703.4
2017-Apr-22 02:00N 46°54' W 003°36'3 5.2 040 / 221031.710.8 12.5 8.512.0
2017-Apr-22 01:30N 46°57' W 003°36'918.8
2017-Apr-22 01:00N 46°51' W 003°25'918.5
2017-Apr-22 00:30N 46°45' W 003°14'918.7
2017-Apr-22 00:01N 46°39' W 003°03'918.5
2017-Apr-21 23:30N 46°34' W 002°53'918.6
2017-Apr-21 23:00N 46°30' W 002°40'918.5
2017-Apr-21 22:30N 46°26' W 002°28'1018.4
2017-Apr-21 21:59N 46°21' W 002°16'918.3
2017-Apr-21 21:30N 46°16' W 002°06'917.9
2017-Apr-21 21:00N 46°12' W 001°54'816.9
2017-Apr-21 20:30N 46°08' W 001°44'816.4
2017-Apr-21 20:00N 46°07' W 001°32'816.0
2017-Apr-21 19:30N 46°06' W 001°20'5 9.8
2017-Apr-21 19:00N 46°09' W 001°15'1 1.3
2017-Apr-21 18:30N 46°10' W 001°14'0 0.0
2017-Apr-21 18:00N 46°10' W 001°14'0 0.0
2017-Apr-21 17:30N 46°10' W 001°14'0 0.0
2017-Apr-21 17:00N 46°10' W 001°14'0 0.0
2017-Apr-21 16:30N 46°10' W 001°14'0 0.0
2017-Apr-21 16:00N 46°10' W 001°14'0 0.0
2017-Apr-21 15:30N 46°10' W 001°14'0 0.0
2017-Apr-21 15:00N 46°10' W 001°14'0 0.0
2017-Apr-21 14:30N 46°10' W 001°14'0 0.0
2017-Apr-21 13:30N 46°10' W 001°14'0 0.0
2017-Apr-21 13:00N 46°10' W 001°14'0 0.0
2017-Apr-21 12:29N 46°10' W 001°14'0 0.0
2017-Apr-21 11:58N 46°10' W 001°14'0 0.0
2017-Apr-21 11:28N 46°10' W 001°14'0 0.0
2017-Apr-21 11:00N 46°10' W 001°14'0 0.0
2017-Apr-21 10:30N 46°10' W 001°14'0 0.0
2017-Apr-21 10:00N 46°10' W 001°14'0 0.3
2017-Apr-21 09:30N 46°10' W 001°15'2 3.3
2017-Apr-21 09:00N 46°08' W 001°15'4 7.4
2017-Apr-21 08:30N 46°06' W 001°19'714.3
2017-Apr-21 08:00N 46°07' W 001°30'816.3
2017-Apr-21 07:30N 46°08' W 001°41'816.2
2017-Apr-21 07:00N 46°05' W 001°52'2120.8
2017-Apr-21 06:00N 45°54' W 002°18'26917.9 070 / 221029.810.8 11.0 2.413.0
2017-Apr-20 15:00N 44°06' W 008°06'18214.0 050 / 501024.0 5.4 12.4 5.013.0
2017-Apr-20 02:00N 41°18' W 009°42'7219.9 100 / 301015.110.8 17.511.115.0
2017-Apr-19 22:24N 40°07' W 009°50'1220.0
2017-Apr-19 21:49N 39°55' W 009°49'1419.8
2017-Apr-19 21:06N 39°41' W 009°51'619.8
2017-Apr-19 20:48N 39°35' W 009°51'619.9
2017-Apr-19 20:30N 39°29' W 009°49'1020.1
2017-Apr-19 20:00N 39°19' W 009°47'1019.8
2017-Apr-19 19:30N 39°10' W 009°45'1019.2
2017-Apr-19 19:00N 39°00' W 009°42'1019.4
2017-Apr-19 18:30N 38°50' W 009°42'1019.7
2017-Apr-19 18:00N 38°41' W 009°41'816.2
2017-Apr-19 17:30N 38°37' W 009°32'815.9
2017-Apr-19 17:00N 38°38' W 009°22'714.5
2017-Apr-19 16:30N 38°41' W 009°14'510.0
2017-Apr-19 16:00N 38°42' W 009°08'0 0.2
2017-Apr-19 15:30N 38°42' W 009°08'0 0.0
2017-Apr-19 14:58N 38°42' W 009°08'0 0.0
2017-Apr-19 14:30N 38°42' W 009°08'0 0.0
2017-Apr-19 13:26N 38°42' W 009°08'0 0.0
2017-Apr-19 12:58N 38°42' W 009°08'0 0.0
2017-Apr-19 12:28N 38°42' W 009°08'0 0.0
2017-Apr-19 12:00N 38°42' W 009°08'0 0.0
2017-Apr-19 11:30N 38°42' W 009°08'0 0.0
2017-Apr-19 10:59N 38°42' W 009°08'0 0.0
2017-Apr-19 10:28N 38°42' W 009°08'0 0.0
2017-Apr-19 10:00N 38°42' W 009°08'0 0.0
2017-Apr-19 09:29N 38°42' W 009°08'0 0.0
2017-Apr-19 08:57N 38°42' W 009°08'0 0.0
2017-Apr-19 08:28N 38°42' W 009°08'0 0.0
2017-Apr-19 07:54N 38°42' W 009°08'0 0.0
2017-Apr-19 07:29N 38°42' W 009°08'0 0.0
2017-Apr-19 07:00N 38°42' W 009°08'1 1.3
2017-Apr-19 06:30N 38°42' W 009°08'5 9.9
2017-Apr-19 06:00N 38°41' W 009°14'4 7.5
2017-Apr-19 05:30N 38°40' W 009°19'510.6
2017-Apr-19 05:00N 38°36' W 009°23'612.5
2017-Apr-19 04:30N 38°30' W 009°24'815.8
2017-Apr-19 04:00N 38°22' W 009°25'816.0
2017-Apr-19 03:30N 38°14' W 009°25'816.3
2017-Apr-19 03:00N 38°06' W 009°25'816.6
2017-Apr-19 02:30N 37°58' W 009°23'817.0
2017-Apr-19 02:00N 37°49' W 009°23'6421.5
2017-Apr-19 02:00N 37°54' W 009°18'1428.8 130 / 71008.810.8 17.314.516.0
2017-Apr-19 01:30N 37°40' W 009°23'917.8
2017-Apr-19 01:00N 37°32' W 009°22'5117.0
2017-Apr-18 22:00N 36°43' W 009°01'919.3
2017-Apr-18 21:30N 36°41' W 008°50'1220.2
2017-Apr-18 20:56N 36°37' W 008°36'920.7
2017-Apr-18 20:30N 36°34' W 008°26'1120.5
2017-Apr-18 19:58N 36°30' W 008°13'1320.6
2017-Apr-18 19:21N 36°26' W 007°58'720.7
2017-Apr-18 19:00N 36°23' W 007°50'1020.7
2017-Apr-18 18:30N 36°19' W 007°38'1020.6
2017-Apr-18 18:00N 36°16' W 007°26'6320.3
2017-Apr-18 14:55N 35°58' W 006°12'918.3
2017-Apr-18 14:25N 35°58' W 006°00'1820.1
2017-Apr-18 13:30N 35°58' W 005°38'816.6
2017-Apr-18 13:00N 35°60' W 005°28'815.1
2017-Apr-18 12:30N 36°07' W 005°24'2 5.0
2017-Apr-18 12:00N 36°09' W 005°22'0 0.5
2017-Apr-18 11:29N 36°09' W 005°22'0 0.0
2017-Apr-18 10:59N 36°09' W 005°22'0 0.0
2017-Apr-18 10:29N 36°09' W 005°22'0 0.0
2017-Apr-18 09:59N 36°09' W 005°22'0 0.0
2017-Apr-18 09:29N 36°09' W 005°22'0 0.0
2017-Apr-18 08:59N 36°09' W 005°22'0 0.0
2017-Apr-18 08:29N 36°09' W 005°22'0 0.0
2017-Apr-18 07:59N 36°09' W 005°22'0 0.0
2017-Apr-18 07:29N 36°09' W 005°22'0 0.0
2017-Apr-18 06:59N 36°09' W 005°22'0 0.0
2017-Apr-18 06:29N 36°09' W 005°22'0 0.0
2017-Apr-18 05:59N 36°09' W 005°22'0 0.2
2017-Apr-18 05:30N 36°09' W 005°22'0 0.8
2017-Apr-18 05:00N 36°09' W 005°22'3 6.5
2017-Apr-18 04:30N 36°05' W 005°22'5 9.0
2017-Apr-18 04:00N 36°01' W 005°23'713.5
2017-Apr-18 03:31N 35°57' W 005°30'815.5
2017-Apr-18 03:01N 35°54' W 005°39'714.7
2017-Apr-18 02:30N 35°54' W 005°48'915.0
2017-Apr-18 01:56N 35°55' W 005°58'715.7
2017-Apr-18 01:30N 35°55' W 006°07'4 8.5
2017-Apr-18 01:00N 35°54' W 006°12'61 2.6 060 / 271013.210.8 17.014.817.0
2017-Apr-17 01:36N 36°34' W 007°09'311.4
2017-Apr-17 01:21N 36°34' W 007°13'511.7
2017-Apr-17 00:58N 36°34' W 007°19'711.7
2017-Apr-17 00:22N 36°34' W 007°27'911.7
2017-Apr-16 23:34N 36°33' W 007°39'311.7
2017-Apr-16 23:21N 36°33' W 007°42'411.9
2017-Apr-16 22:59N 36°33' W 007°47'711.7
2017-Apr-16 22:25N 36°33' W 007°56'611.7
2017-Apr-16 21:56N 36°33' W 008°03'1711.7
2017-Apr-16 20:30N 36°32' W 008°23'911.7
2017-Apr-16 19:42N 36°32' W 008°35'211.6
2017-Apr-16 19:30N 36°32' W 008°38'611.4
2017-Apr-16 19:00N 36°32' W 008°45'611.1
2017-Apr-16 18:30N 36°32' W 008°52'511.0
2017-Apr-16 18:00N 36°32' W 008°59'611.1
2017-Apr-16 17:30N 36°32' W 009°06'510.9
2017-Apr-16 17:00N 36°33' W 009°12'511.0
2017-Apr-16 16:30N 36°36' W 009°18'611.4
2017-Apr-16 16:00N 36°40' W 009°23'611.3
2017-Apr-16 15:30N 36°44' W 009°28'611.6
2017-Apr-16 15:00N 36°48' W 009°33'611.7
2017-Apr-16 14:30N 36°54' W 009°35'1211.9
2017-Apr-16 13:30N 37°06' W 009°38'612.1
2017-Apr-16 13:00N 37°12' W 009°39'611.9
2017-Apr-16 12:30N 37°17' W 009°41'611.6
2017-Apr-16 12:00N 37°23' W 009°42'611.8
2017-Apr-16 11:30N 37°29' W 009°44'611.9
2017-Apr-16 11:00N 37°35' W 009°46'611.9
2017-Apr-16 10:30N 37°41' W 009°48'611.8
2017-Apr-16 10:00N 37°46' W 009°49'611.7
2017-Apr-16 09:30N 37°52' W 009°51'611.5
2017-Apr-16 09:00N 37°58' W 009°52'611.6
2017-Apr-16 08:30N 38°03' W 009°54'611.5
2017-Apr-16 08:00N 38°09' W 009°55'611.2
2017-Apr-16 07:30N 38°14' W 009°57'611.1
2017-Apr-16 07:00N 38°20' W 009°59'611.0
2017-Apr-16 06:30N 38°25' W 010°00'611.3
2017-Apr-16 06:00N 38°30' W 010°02'611.2
2017-Apr-16 05:30N 38°36' W 010°04'611.4
2017-Apr-16 05:00N 38°42' W 010°05'611.6
2017-Apr-16 04:30N 38°47' W 010°05'611.5
2017-Apr-16 04:00N 38°53' W 010°05'611.3
2017-Apr-16 03:30N 38°59' W 010°06'611.1
2017-Apr-16 03:00N 39°04' W 010°05'611.2
2017-Apr-16 02:30N 39°10' W 010°04'611.4
2017-Apr-16 02:00N 39°15' W 010°03'511.0
2017-Apr-16 01:30N 39°21' W 010°02'611.0
2017-Apr-16 01:00N 39°26' W 010°01'510.5
2017-Apr-16 00:30N 39°31' W 009°58'510.5
2017-Apr-16 00:00N 39°35' W 009°53'510.8
2017-Apr-15 23:30N 39°40' W 009°50'610.9
2017-Apr-15 22:59N 39°45' W 009°47'511.1
2017-Apr-15 22:30N 39°50' W 009°44'611.1
2017-Apr-15 21:58N 39°55' W 009°40'  
Track history (hours):
 
Tides and Currents Weather Stations Pressure Air Temp Water Temp Dewpoint Dewpoint Depression Visibility Wind Speed Wind Dir Waves Ship Positions

Oriana (Bermuda)

Last reported at 2017-Apr-24 11:00 UTC. Time now 2017-Apr-24 11:20 UTC.
Position N 46°41' W 007°08'.

Length 261 m; beam 32.2 m; draft 8.2 m.

Type: Ship. MMSI: 310529000.

Date/timePositionNaut miles runAvg speedWind from/ knotsBaromVisibWave heightAir tempDewpointWater temp
2017-Apr-24 11:00N 46°41' W 007°08'1020.1
2017-Apr-24 10:30N 46°50' W 007°00'1020.7
2017-Apr-24 10:01N 46°58' W 006°52'1020.8
2017-Apr-24 09:30N 47°07' W 006°44'1020.8
2017-Apr-24 09:00N 47°16' W 006°37'1020.8
2017-Apr-24 08:31N 47°26' W 006°30'1121.2
2017-Apr-24 08:01N 47°35' W 006°22'1121.6
2017-Apr-24 07:30N 47°43' W 006°12'1221.7
2017-Apr-24 06:57N 47°53' W 006°02'1222.1
2017-Apr-24 06:25N 48°03' W 005°52'921.8
2017-Apr-24 06:00N 48°11' W 005°45'1221.8
2017-Apr-24 05:27N 48°21' W 005°35'921.3
2017-Apr-24 05:00N 48°28' W 005°26'1019.9
2017-Apr-24 04:30N 48°36' W 005°16'1019.5
2017-Apr-24 04:00N 48°42' W 005°05'1019.6
2017-Apr-24 03:30N 48°50' W 004°56'1019.3
2017-Apr-24 03:00N 48°56' W 004°45'1719.1
2017-Apr-24 02:07N 49°07' W 004°26'861.9
2017-Apr-24 02:00N 49°00' W 004°30'1459.8 120 / 101025.310.8 11.511.512.0
2017-Apr-24 01:45N 49°12' W 004°17'1520.2
2017-Apr-24 01:00N 49°21' W 003°59'1120.0
2017-Apr-24 00:28N 49°28' W 003°47'1121.2
2017-Apr-23 23:57N 49°36' W 003°35'1021.7
2017-Apr-23 23:31N 49°43' W 003°25'1122.1
2017-Apr-23 23:01N 49°51' W 003°13'9544.8
2017-Apr-23 23:00N 49°54' W 003°00'5 9.8 210 / 71023.810.8 11.6 8.411.0
2017-Apr-23 22:31N 49°59' W 003°01'1121.9
2017-Apr-23 22:00N 50°02' W 002°45'1121.6
2017-Apr-23 21:30N 50°05' W 002°28'1021.0
2017-Apr-23 21:01N 50°08' W 002°13'1120.4
2017-Apr-23 20:29N 50°12' W 001°58'1019.7
2017-Apr-23 20:00N 50°17' W 001°45'1019.2
2017-Apr-23 19:30N 50°22' W 001°32'1018.6
2017-Apr-23 18:59N 50°27' W 001°19'817.5
2017-Apr-23 18:30N 50°31' W 001°07'917.2
2017-Apr-23 18:00N 50°37' W 000°59'611.1
2017-Apr-23 17:30N 50°43' W 000°60'917.1
2017-Apr-23 17:00N 50°46' W 001°13'510.6
2017-Apr-23 16:30N 50°50' W 001°18'510.2
2017-Apr-23 16:00N 50°53' W 001°24'2 2.7
2017-Apr-23 15:27N 50°54' W 001°26'0 0.0
2017-Apr-23 15:00N 50°54' W 001°26'0 0.0
2017-Apr-23 14:00N 50°54' W 001°26'0 0.0
2017-Apr-23 13:30N 50°54' W 001°26'0 0.0
2017-Apr-23 13:00N 50°54' W 001°26'0 0.0
2017-Apr-23 12:30N 50°54' W 001°26'0 0.0
2017-Apr-23 12:00N 50°54' W 001°26'0 0.0
2017-Apr-23 11:27N 50°54' W 001°26'0 0.0
2017-Apr-23 11:00N 50°54' W 001°26'0 0.0
2017-Apr-23 10:27N 50°54' W 001°26'0 0.0
2017-Apr-23 10:00N 50°54' W 001°26'0 0.0
2017-Apr-23 09:30N 50°54' W 001°26'0 0.0
2017-Apr-23 09:00N 50°54' W 001°26'0 0.0
2017-Apr-23 08:30N 50°54' W 001°26'0 0.0
2017-Apr-23 08:00N 50°54' W 001°26'0 0.0
2017-Apr-23 07:30N 50°54' W 001°26'0 0.0
2017-Apr-23 06:57N 50°54' W 001°26'0 0.0
2017-Apr-23 06:30N 50°54' W 001°26'0 0.0
2017-Apr-23 06:00N 50°54' W 001°26'0 0.6
2017-Apr-23 05:30N 50°54' W 001°26'2 3.6
2017-Apr-23 05:00N 50°53' W 001°24'4 8.9
2017-Apr-23 04:30N 50°50' W 001°19'4 8.0
2017-Apr-23 04:00N 50°46' W 001°17'815.8
2017-Apr-23 03:30N 50°44' W 001°05'612.7
2017-Apr-23 03:00N 50°39' W 000°58'510.9
2017-Apr-23 02:30N 50°34' W 000°60'713.2
2017-Apr-23 02:00N 50°31' W 001°09'714.5
2017-Apr-23 01:30N 50°28' W 001°20'1215.4
2017-Apr-23 00:42N 50°24' W 001°38'416.2
2017-Apr-23 00:29N 50°22' W 001°43'1312.6
2017-Apr-22 23:28N 50°17' W 002°01'510.2
2017-Apr-22 23:00N 50°15' W 002°08'510.1
2017-Apr-22 22:30N 50°11' W 002°14'611.7
2017-Apr-22 22:00N 50°06' W 002°14'1110.4
2017-Apr-22 20:57N 49°56' W 002°22'511.5
2017-Apr-22 20:30N 49°53' W 002°29'611.8
2017-Apr-22 19:59N 49°51' W 002°37'611.9
2017-Apr-22 19:31N 49°50' W 002°46'611.7
2017-Apr-22 19:01N 49°48' W 002°54'611.5
2017-Apr-22 18:30N 49°45' W 003°02'611.6
2017-Apr-22 18:00N 49°42' W 003°10'611.7
2017-Apr-22 17:30N 49°38' W 003°17'611.7
2017-Apr-22 17:00N 49°34' W 003°24'6355.6
2017-Apr-22 17:00N 49°30' W 003°18'918.4 360 / 51028.510.8 12.010.912.0
2017-Apr-22 16:30N 49°31' W 003°32'1811.7
2017-Apr-22 15:00N 49°20' W 003°53'19 9.5
2017-Apr-22 13:00N 49°06' W 004°12'2315.0 040 / 121032.910.8 12.010.112.0
2017-Apr-22 11:25N 48°55' W 004°44'811.3
2017-Apr-22 10:44N 48°50' W 004°53'311.2
2017-Apr-22 10:25N 48°48' W 004°57'510.9
2017-Apr-22 09:58N 48°45' W 005°03'612.6
2017-Apr-22 09:30N 48°41' W 005°09'917.3
2017-Apr-22 09:00N 48°35' W 005°19'917.8
2017-Apr-22 08:30N 48°28' W 005°28'917.3
2017-Apr-22 07:58N 48°19' W 005°29'1417.8
2017-Apr-22 07:09N 48°05' W 005°28'318.0
2017-Apr-22 07:00N 48°02' W 005°28'1317.3
2017-Apr-22 06:14N 47°50' W 005°19'938.5
2017-Apr-22 06:00N 47°42' W 005°12'52146.1 040 / 191029.110.8 11.4 7.512.0
2017-Apr-22 05:59N 47°47' W 005°13'918.3
2017-Apr-22 05:30N 47°42' W 005°03'1018.8
2017-Apr-22 05:00N 47°36' W 004°51'918.1
2017-Apr-22 04:30N 47°31' W 004°41'1019.0
2017-Apr-22 04:00N 47°25' W 004°30'918.2
2017-Apr-22 03:30N 47°19' W 004°19'918.6
2017-Apr-22 03:00N 47°14' W 004°08'918.7
2017-Apr-22 02:30N 47°08' W 003°57'918.8
2017-Apr-22 02:00N 47°02' W 003°47'11703.4
2017-Apr-22 02:00N 46°54' W 003°36'3 5.2 040 / 221031.710.8 12.5 8.512.0
2017-Apr-22 01:30N 46°57' W 003°36'918.8
2017-Apr-22 01:00N 46°51' W 003°25'918.5
2017-Apr-22 00:30N 46°45' W 003°14'918.7
2017-Apr-22 00:01N 46°39' W 003°03'918.5
2017-Apr-21 23:30N 46°34' W 002°53'918.6
2017-Apr-21 23:00N 46°30' W 002°40'918.5
2017-Apr-21 22:30N 46°26' W 002°28'1018.4
2017-Apr-21 21:59N 46°21' W 002°16'918.3
2017-Apr-21 21:30N 46°16' W 002°06'917.9
2017-Apr-21 21:00N 46°12' W 001°54'816.9
2017-Apr-21 20:30N 46°08' W 001°44'816.4
2017-Apr-21 20:00N 46°07' W 001°32'816.0
2017-Apr-21 19:30N 46°06' W 001°20'5 9.8
2017-Apr-21 19:00N 46°09' W 001°15'1 1.3
2017-Apr-21 18:30N 46°10' W 001°14'0 0.0
2017-Apr-21 18:00N 46°10' W 001°14'0 0.0
2017-Apr-21 17:30N 46°10' W 001°14'0 0.0
2017-Apr-21 17:00N 46°10' W 001°14'0 0.0
2017-Apr-21 16:30N 46°10' W 001°14'0 0.0
2017-Apr-21 16:00N 46°10' W 001°14'0 0.0
2017-Apr-21 15:30N 46°10' W 001°14'0 0.0
2017-Apr-21 15:00N 46°10' W 001°14'0 0.0
2017-Apr-21 14:30N 46°10' W 001°14'0 0.0
2017-Apr-21 13:30N 46°10' W 001°14'0 0.0
2017-Apr-21 13:00N 46°10' W 001°14'0 0.0
2017-Apr-21 12:29N 46°10' W 001°14'0 0.0
2017-Apr-21 11:58N 46°10' W 001°14'0 0.0
2017-Apr-21 11:28N 46°10' W 001°14'0 0.0
2017-Apr-21 11:00N 46°10' W 001°14'0 0.0
2017-Apr-21 10:30N 46°10' W 001°14'0 0.0
2017-Apr-21 10:00N 46°10' W 001°14'0 0.3
2017-Apr-21 09:30N 46°10' W 001°15'2 3.3
2017-Apr-21 09:00N 46°08' W 001°15'4 7.4
2017-Apr-21 08:30N 46°06' W 001°19'714.3
2017-Apr-21 08:00N 46°07' W 001°30'816.3
2017-Apr-21 07:30N 46°08' W 001°41'816.2
2017-Apr-21 07:00N 46°05' W 001°52'2120.8
2017-Apr-21 06:00N 45°54' W 002°18'26917.9 070 / 221029.810.8 11.0 2.413.0
2017-Apr-20 15:00N 44°06' W 008°06'18214.0 050 / 501024.0 5.4 12.4 5.013.0
2017-Apr-20 02:00N 41°18' W 009°42'7219.9 100 / 301015.110.8 17.511.115.0
2017-Apr-19 22:24N 40°07' W 009°50'1220.0
2017-Apr-19 21:49N 39°55' W 009°49'1419.8
2017-Apr-19 21:06N 39°41' W 009°51'619.8
2017-Apr-19 20:48N 39°35' W 009°51'619.9
2017-Apr-19 20:30N 39°29' W 009°49'1020.1
2017-Apr-19 20:00N 39°19' W 009°47'1019.8
2017-Apr-19 19:30N 39°10' W 009°45'1019.2
2017-Apr-19 19:00N 39°00' W 009°42'1019.4
2017-Apr-19 18:30N 38°50' W 009°42'1019.7
2017-Apr-19 18:00N 38°41' W 009°41'816.2
2017-Apr-19 17:30N 38°37' W 009°32'815.9
2017-Apr-19 17:00N 38°38' W 009°22'714.5
2017-Apr-19 16:30N 38°41' W 009°14'510.0
2017-Apr-19 16:00N 38°42' W 009°08'0 0.2
2017-Apr-19 15:30N 38°42' W 009°08'0 0.0
2017-Apr-19 14:58N 38°42' W 009°08'0 0.0
2017-Apr-19 14:30N 38°42' W 009°08'0 0.0
2017-Apr-19 13:26N 38°42' W 009°08'0 0.0
2017-Apr-19 12:58N 38°42' W 009°08'0 0.0
2017-Apr-19 12:28N 38°42' W 009°08'0 0.0
2017-Apr-19 12:00N 38°42' W 009°08'0 0.0
2017-Apr-19 11:30N 38°42' W 009°08'0 0.0
2017-Apr-19 10:59N 38°42' W 009°08'0 0.0
2017-Apr-19 10:28N 38°42' W 009°08'0 0.0
2017-Apr-19 10:00N 38°42' W 009°08'0 0.0
2017-Apr-19 09:29N 38°42' W 009°08'0 0.0
2017-Apr-19 08:57N 38°42' W 009°08'0 0.0
2017-Apr-19 08:28N 38°42' W 009°08'0 0.0
2017-Apr-19 07:54N 38°42' W 009°08'0 0.0
2017-Apr-19 07:29N 38°42' W 009°08'0 0.0
2017-Apr-19 07:00N 38°42' W 009°08'1 1.3
2017-Apr-19 06:30N 38°42' W 009°08'5 9.9
2017-Apr-19 06:00N 38°41' W 009°14'4 7.5
2017-Apr-19 05:30N 38°40' W 009°19'510.6
2017-Apr-19 05:00N 38°36' W 009°23'612.5
2017-Apr-19 04:30N 38°30' W 009°24'815.8
2017-Apr-19 04:00N 38°22' W 009°25'816.0
2017-Apr-19 03:30N 38°14' W 009°25'816.3
2017-Apr-19 03:00N 38°06' W 009°25'816.6
2017-Apr-19 02:30N 37°58' W 009°23'817.0
2017-Apr-19 02:00N 37°49' W 009°23'6421.5
2017-Apr-19 02:00N 37°54' W 009°18'1428.8 130 / 71008.810.8 17.314.516.0
2017-Apr-19 01:30N 37°40' W 009°23'917.8
2017-Apr-19 01:00N 37°32' W 009°22'5117.0
2017-Apr-18 22:00N 36°43' W 009°01'919.3
2017-Apr-18 21:30N 36°41' W 008°50'1220.2
2017-Apr-18 20:56N 36°37' W 008°36'920.7
2017-Apr-18 20:30N 36°34' W 008°26'1120.5
2017-Apr-18 19:58N 36°30' W 008°13'1320.6
2017-Apr-18 19:21N 36°26' W 007°58'720.7
2017-Apr-18 19:00N 36°23' W 007°50'1020.7
2017-Apr-18 18:30N 36°19' W 007°38'1020.6
2017-Apr-18 18:00N 36°16' W 007°26'6320.3
2017-Apr-18 14:55N 35°58' W 006°12'918.3
2017-Apr-18 14:25N 35°58' W 006°00'1820.1
2017-Apr-18 13:30N 35°58' W 005°38'816.6
2017-Apr-18 13:00N 35°60' W 005°28'815.1
2017-Apr-18 12:30N 36°07' W 005°24'2 5.0
2017-Apr-18 12:00N 36°09' W 005°22'0 0.5
2017-Apr-18 11:29N 36°09' W 005°22'0 0.0
2017-Apr-18 10:59N 36°09' W 005°22'0 0.0
2017-Apr-18 10:29N 36°09' W 005°22'0 0.0
2017-Apr-18 09:59N 36°09' W 005°22'0 0.0
2017-Apr-18 09:29N 36°09' W 005°22'0 0.0
2017-Apr-18 08:59N 36°09' W 005°22'0 0.0
2017-Apr-18 08:29N 36°09' W 005°22'0 0.0
2017-Apr-18 07:59N 36°09' W 005°22'0 0.0
2017-Apr-18 07:29N 36°09' W 005°22'0 0.0
2017-Apr-18 06:59N 36°09' W 005°22'0 0.0
2017-Apr-18 06:29N 36°09' W 005°22'0 0.0
2017-Apr-18 05:59N 36°09' W 005°22'0 0.2
2017-Apr-18 05:30N 36°09' W 005°22'0 0.8
2017-Apr-18 05:00N 36°09' W 005°22'3 6.5
2017-Apr-18 04:30N 36°05' W 005°22'5 9.0
2017-Apr-18 04:00N 36°01' W 005°23'713.5
2017-Apr-18 03:31N 35°57' W 005°30'815.5
2017-Apr-18 03:01N 35°54' W 005°39'714.7
2017-Apr-18 02:30N 35°54' W 005°48'915.0
2017-Apr-18 01:56N 35°55' W 005°58'715.7
2017-Apr-18 01:30N 35°55' W 006°07'4 8.5
2017-Apr-18 01:00N 35°54' W 006°12'61 2.6 060 / 271013.210.8 17.014.817.0
2017-Apr-17 01:36N 36°34' W 007°09'311.4
2017-Apr-17 01:21N 36°34' W 007°13'511.7
2017-Apr-17 00:58N 36°34' W 007°19'711.7
2017-Apr-17 00:22N 36°34' W 007°27'911.7
2017-Apr-16 23:34N 36°33' W 007°39'311.7
2017-Apr-16 23:21N 36°33' W 007°42'411.9
2017-Apr-16 22:59N 36°33' W 007°47'711.7
2017-Apr-16 22:25N 36°33' W 007°56'611.7
2017-Apr-16 21:56N 36°33' W 008°03'1711.7
2017-Apr-16 20:30N 36°32' W 008°23'911.7
2017-Apr-16 19:42N 36°32' W 008°35'211.6
2017-Apr-16 19:30N 36°32' W 008°38'611.4
2017-Apr-16 19:00N 36°32' W 008°45'611.1
2017-Apr-16 18:30N 36°32' W 008°52'511.0
2017-Apr-16 18:00N 36°32' W 008°59'611.1
2017-Apr-16 17:30N 36°32' W 009°06'510.9
2017-Apr-16 17:00N 36°33' W 009°12'511.0
2017-Apr-16 16:30N 36°36' W 009°18'611.4
2017-Apr-16 16:00N 36°40' W 009°23'611.3
2017-Apr-16 15:30N 36°44' W 009°28'611.6
2017-Apr-16 15:00N 36°48' W 009°33'611.7
2017-Apr-16 14:30N 36°54' W 009°35'1211.9
2017-Apr-16 13:30N 37°06' W 009°38'612.1
2017-Apr-16 13:00N 37°12' W 009°39'611.9
2017-Apr-16 12:30N 37°17' W 009°41'611.6
2017-Apr-16 12:00N 37°23' W 009°42'611.8
2017-Apr-16 11:30N 37°29' W 009°44'611.9
2017-Apr-16 11:00N 37°35' W 009°46'611.9
2017-Apr-16 10:30N 37°41' W 009°48'611.8
2017-Apr-16 10:00N 37°46' W 009°49'611.7
2017-Apr-16 09:30N 37°52' W 009°51'611.5
2017-Apr-16 09:00N 37°58' W 009°52'611.6
2017-Apr-16 08:30N 38°03' W 009°54'611.5
2017-Apr-16 08:00N 38°09' W 009°55'611.2
2017-Apr-16 07:30N 38°14' W 009°57'611.1
2017-Apr-16 07:00N 38°20' W 009°59'611.0
2017-Apr-16 06:30N 38°25' W 010°00'611.3
2017-Apr-16 06:00N 38°30' W 010°02'611.2
2017-Apr-16 05:30N 38°36' W 010°04'611.4
2017-Apr-16 05:00N 38°42' W 010°05'611.6
2017-Apr-16 04:30N 38°47' W 010°05'611.5
2017-Apr-16 04:00N 38°53' W 010°05'611.3
2017-Apr-16 03:30N 38°59' W 010°06'611.1
2017-Apr-16 03:00N 39°04' W 010°05'611.2
2017-Apr-16 02:30N 39°10' W 010°04'611.4
2017-Apr-16 02:00N 39°15' W 010°03'511.0
2017-Apr-16 01:30N 39°21' W 010°02'611.0
2017-Apr-16 01:00N 39°26' W 010°01'510.5
2017-Apr-16 00:30N 39°31' W 009°58'510.5
2017-Apr-16 00:00N 39°35' W 009°53'510.8
2017-Apr-15 23:30N 39°40' W 009°50'610.9
2017-Apr-15 22:59N 39°45' W 009°47'511.1
2017-Apr-15 22:30N 39°50' W 009°44'611.1
2017-Apr-15 21:58N 39°55' W 009°40'  

Dump ship's entire track history